createdAt,value
2017-07-17T00:00:08.273Z,0
2017-07-17T00:01:09.692Z,0
2017-07-17T00:02:11.116Z,0
2017-07-17T00:03:12.543Z,0
2017-07-17T00:04:13.974Z,0
2017-07-17T00:05:15.429Z,0
2017-07-17T00:06:16.844Z,0
2017-07-17T00:07:18.288Z,0
2017-07-17T00:08:19.864Z,0
2017-07-17T00:09:21.294Z,0
2017-07-17T00:10:22.711Z,0
2017-07-17T00:11:24.131Z,0
2017-07-17T00:12:25.557Z,0
2017-07-17T00:13:26.984Z,0
2017-07-17T00:14:28.409Z,0
2017-07-17T00:15:30.556Z,0
2017-07-17T00:16:31.990Z,0
2017-07-17T00:17:33.406Z,0
2017-07-17T00:18:34.841Z,0
2017-07-17T00:19:36.268Z,0
2017-07-17T00:20:37.686Z,0
2017-07-17T00:21:39.106Z,0
2017-07-17T00:22:40.542Z,0
2017-07-17T00:23:41.967Z,0
2017-07-17T00:24:43.387Z,0
2017-07-17T00:25:44.813Z,0
2017-07-17T00:26:46.230Z,0
2017-07-17T00:27:47.656Z,0
2017-07-17T00:28:49.078Z,0
2017-07-17T00:29:50.502Z,0
2017-07-17T00:30:51.923Z,0
2017-07-17T00:31:53.350Z,0
2017-07-17T00:32:54.790Z,0
2017-07-17T00:33:56.214Z,0
2017-07-17T00:34:57.635Z,0
2017-07-17T00:35:59.072Z,0
2017-07-17T00:37:00.499Z,0
2017-07-17T00:38:01.916Z,0
2017-07-17T00:39:03.343Z,0
2017-07-17T00:40:04.768Z,0
2017-07-17T00:41:06.193Z,0
2017-07-17T00:42:07.618Z,0
2017-07-17T00:43:09.043Z,0
2017-07-17T00:44:10.462Z,0
2017-07-17T00:45:11.897Z,0
2017-07-17T00:46:13.324Z,0
2017-07-17T00:47:14.751Z,0
2017-07-17T00:48:16.177Z,0
2017-07-17T00:49:17.595Z,0
2017-07-17T00:50:19.018Z,0
2017-07-17T00:51:20.446Z,0
2017-07-17T00:52:21.878Z,0
2017-07-17T00:53:23.284Z,0
2017-07-17T00:54:24.703Z,0
2017-07-17T00:55:26.137Z,0
2017-07-17T00:56:27.559Z,0
2017-07-17T00:57:28.978Z,0
2017-07-17T00:58:30.414Z,0
2017-07-17T00:59:31.943Z,0
2017-07-17T01:00:33.362Z,0
2017-07-17T01:01:34.781Z,0
2017-07-17T01:02:36.218Z,0
2017-07-17T01:03:37.650Z,0
2017-07-17T01:04:39.080Z,0
2017-07-17T01:05:40.513Z,0
2017-07-17T01:06:41.941Z,0
2017-07-17T01:07:43.367Z,0
2017-07-17T01:08:44.802Z,0
2017-07-17T01:09:46.239Z,0
2017-07-17T01:10:47.683Z,0
2017-07-17T01:11:49.094Z,0
2017-07-17T01:12:50.520Z,0
2017-07-17T01:13:51.943Z,0
2017-07-17T01:14:53.384Z,0
2017-07-17T01:15:54.810Z,0
2017-07-17T01:16:56.236Z,0
2017-07-17T01:17:57.660Z,0
2017-07-17T01:18:59.082Z,0
2017-07-17T01:20:00.503Z,0
2017-07-17T01:21:01.930Z,0
2017-07-17T01:22:03.348Z,0
2017-07-17T01:23:04.770Z,0
2017-07-17T01:24:06.200Z,0
2017-07-17T01:25:07.615Z,0
2017-07-17T01:26:09.040Z,0
2017-07-17T01:27:10.463Z,0
2017-07-17T01:28:11.882Z,0
2017-07-17T01:29:13.296Z,0
2017-07-17T01:30:14.717Z,0
2017-07-17T01:31:16.136Z,0
2017-07-17T01:32:17.567Z,0
2017-07-17T01:33:18.990Z,0
2017-07-17T01:34:20.414Z,0
2017-07-17T01:35:21.839Z,0
2017-07-17T01:36:23.264Z,0
2017-07-17T01:37:24.690Z,0
2017-07-17T01:38:26.128Z,0
2017-07-17T01:39:28.289Z,0
2017-07-17T01:40:29.716Z,0
2017-07-17T01:41:31.136Z,0
2017-07-17T01:42:32.557Z,0
2017-07-17T01:43:33.978Z,0
2017-07-17T01:44:35.405Z,0
2017-07-17T01:45:36.831Z,0
2017-07-17T01:46:38.248Z,0
2017-07-17T01:47:39.684Z,0
2017-07-17T01:48:41.116Z,0
2017-07-17T01:49:42.535Z,0
2017-07-17T01:50:43.969Z,0
2017-07-17T01:51:45.389Z,0
2017-07-17T01:52:46.813Z,0
2017-07-17T01:53:48.236Z,0
2017-07-17T01:54:50.495Z,0
2017-07-17T01:55:51.915Z,0
2017-07-17T01:56:53.335Z,0
2017-07-17T01:57:54.762Z,0
2017-07-17T01:58:56.193Z,0
2017-07-17T01:59:57.615Z,0
2017-07-17T02:00:59.035Z,0
2017-07-17T02:02:00.460Z,0
2017-07-17T02:03:01.877Z,0
2017-07-17T02:04:03.299Z,0
2017-07-17T02:05:04.721Z,0
2017-07-17T02:06:06.155Z,0
2017-07-17T02:07:07.568Z,0
2017-07-17T02:08:08.987Z,0
2017-07-17T02:09:10.407Z,0
2017-07-17T02:10:11.837Z,0
2017-07-17T02:11:13.256Z,0
2017-07-17T02:12:14.681Z,0
2017-07-17T02:13:16.108Z,0
2017-07-17T02:14:17.537Z,0
2017-07-17T02:15:18.965Z,0
2017-07-17T02:16:20.422Z,0
2017-07-17T02:17:21.848Z,0
2017-07-17T02:18:23.269Z,0
2017-07-17T02:19:24.698Z,0
2017-07-17T02:20:26.122Z,0
2017-07-17T02:21:28.498Z,0
2017-07-17T02:22:29.919Z,0
2017-07-17T02:23:31.349Z,0
2017-07-17T02:24:32.771Z,0
2017-07-17T02:25:34.192Z,0
2017-07-17T02:26:35.636Z,0
2017-07-17T02:27:37.055Z,0
2017-07-17T02:28:38.481Z,0
2017-07-17T02:29:39.909Z,0
2017-07-17T02:30:41.334Z,0
2017-07-17T02:31:42.750Z,0
2017-07-17T02:32:44.170Z,0
2017-07-17T02:33:45.598Z,0
2017-07-17T02:34:47.030Z,0
2017-07-17T02:35:48.447Z,0
2017-07-17T02:36:49.867Z,0
2017-07-17T02:37:51.297Z,0
2017-07-17T02:38:52.719Z,0
2017-07-17T02:39:54.141Z,0
2017-07-17T02:40:55.558Z,0
2017-07-17T02:41:56.979Z,0
2017-07-17T02:42:58.402Z,0
2017-07-17T02:43:59.820Z,0
2017-07-17T02:45:01.250Z,0
2017-07-17T02:46:02.673Z,0
2017-07-17T02:47:04.102Z,0
2017-07-17T02:48:05.526Z,0
2017-07-17T02:49:06.947Z,0
2017-07-17T02:50:08.369Z,0
2017-07-17T02:51:09.798Z,0
2017-07-17T02:52:11.217Z,0
2017-07-17T02:53:12.639Z,0
2017-07-17T02:54:14.065Z,0
2017-07-17T02:55:15.488Z,0
2017-07-17T02:56:16.912Z,0
2017-07-17T02:57:18.344Z,0
2017-07-17T02:58:19.769Z,0
2017-07-17T02:59:21.194Z,0
2017-07-17T03:00:22.618Z,4
2017-07-17T03:01:24.041Z,4
2017-07-17T03:02:25.472Z,4
2017-07-17T03:03:26.893Z,0
2017-07-17T03:04:28.314Z,0
2017-07-17T03:05:29.738Z,0
2017-07-17T03:06:31.167Z,0
2017-07-17T03:07:32.589Z,0
2017-07-17T03:08:34.005Z,0
2017-07-17T03:09:35.431Z,0
2017-07-17T03:10:36.856Z,0
2017-07-17T03:11:38.278Z,0
2017-07-17T03:12:39.701Z,0
2017-07-17T03:13:41.137Z,0
2017-07-17T03:14:42.554Z,0
2017-07-17T03:15:43.979Z,4
2017-07-17T03:16:45.406Z,4
2017-07-17T03:17:46.831Z,4
2017-07-17T03:18:48.272Z,4
2017-07-17T03:19:49.736Z,4
2017-07-17T03:20:51.154Z,4
2017-07-17T03:21:52.580Z,4
2017-07-17T03:22:54.006Z,4
2017-07-17T03:23:55.431Z,4
2017-07-17T03:24:56.857Z,4
2017-07-17T03:25:58.284Z,4
2017-07-17T03:26:59.700Z,8
2017-07-17T03:28:01.127Z,4
2017-07-17T03:29:02.544Z,4
2017-07-17T03:30:04.743Z,8
2017-07-17T03:31:06.167Z,4
2017-07-17T03:32:07.598Z,8
2017-07-17T03:33:09.029Z,4
2017-07-17T03:34:10.451Z,4
2017-07-17T03:35:11.880Z,4
2017-07-17T03:36:13.299Z,4
2017-07-17T03:37:14.718Z,4
2017-07-17T03:38:16.132Z,4
2017-07-17T03:39:17.559Z,4
2017-07-17T03:40:18.978Z,4
2017-07-17T03:41:20.409Z,4
2017-07-17T03:42:21.830Z,4
2017-07-17T03:43:23.847Z,8
2017-07-17T03:44:25.290Z,8
2017-07-17T03:45:26.686Z,8
2017-07-17T03:46:28.109Z,8
2017-07-17T03:47:29.532Z,8
2017-07-17T03:48:30.949Z,8
2017-07-17T03:49:32.371Z,12
2017-07-17T03:50:33.790Z,12
2017-07-17T03:51:35.206Z,8
2017-07-17T03:52:36.638Z,12
2017-07-17T03:53:38.060Z,12
2017-07-17T03:54:39.493Z,16
2017-07-17T03:55:40.914Z,20
2017-07-17T03:56:42.335Z,20
2017-07-17T03:57:43.757Z,20
2017-07-17T03:58:45.183Z,24
2017-07-17T03:59:46.598Z,28
2017-07-17T04:00:48.031Z,28
2017-07-17T04:01:49.454Z,32
2017-07-17T04:02:50.877Z,36
2017-07-17T04:03:52.302Z,36
2017-07-17T04:04:53.725Z,44
2017-07-17T04:05:55.148Z,44
2017-07-17T04:06:56.571Z,48
2017-07-17T04:07:57.991Z,52
2017-07-17T04:08:59.413Z,52
2017-07-17T04:10:00.835Z,60
2017-07-17T04:11:02.262Z,60
2017-07-17T04:12:03.682Z,64
2017-07-17T04:13:05.101Z,64
2017-07-17T04:14:06.521Z,76
2017-07-17T04:15:07.941Z,80
2017-07-17T04:16:09.360Z,84
2017-07-17T04:17:10.781Z,84
2017-07-17T04:18:12.203Z,88
2017-07-17T04:19:13.624Z,88
2017-07-17T04:20:15.052Z,100
2017-07-17T04:21:16.473Z,104
2017-07-17T04:22:17.902Z,100
2017-07-17T04:23:19.322Z,100
2017-07-17T04:24:20.745Z,116
2017-07-17T04:25:22.171Z,128
2017-07-17T04:26:23.605Z,140
2017-07-17T04:27:25.039Z,152
2017-07-17T04:28:26.474Z,140
2017-07-17T04:29:27.894Z,128
2017-07-17T04:30:29.324Z,140
2017-07-17T04:31:30.741Z,148
2017-07-17T04:32:32.161Z,152
2017-07-17T04:33:33.587Z,156
2017-07-17T04:34:35.006Z,164
2017-07-17T04:35:36.437Z,176
2017-07-17T04:36:37.856Z,196
2017-07-17T04:37:40.138Z,192
2017-07-17T04:38:40.664Z,184
2017-07-17T04:39:42.088Z,184
2017-07-17T04:40:43.520Z,184
2017-07-17T04:41:44.944Z,184
2017-07-17T04:42:46.361Z,188
2017-07-17T04:43:47.785Z,196
2017-07-17T04:44:49.212Z,192
2017-07-17T04:45:50.637Z,188
2017-07-17T04:46:52.054Z,180
2017-07-17T04:47:53.478Z,164
2017-07-17T04:48:54.911Z,148
2017-07-17T04:49:56.330Z,136
2017-07-17T04:50:57.752Z,124
2017-07-17T04:51:59.179Z,128
2017-07-17T04:53:00.602Z,156
2017-07-17T04:54:02.033Z,172
2017-07-17T04:55:03.461Z,192
2017-07-17T04:56:04.888Z,200
2017-07-17T04:57:06.308Z,188
2017-07-17T04:58:07.734Z,164
2017-07-17T04:59:09.158Z,156
2017-07-17T05:00:10.585Z,168
2017-07-17T05:01:12.009Z,184
2017-07-17T05:02:13.433Z,208
2017-07-17T05:03:14.858Z,224
2017-07-17T05:04:16.279Z,248
2017-07-17T05:05:17.701Z,276
2017-07-17T05:06:19.132Z,300
2017-07-17T05:07:20.561Z,328
2017-07-17T05:08:21.986Z,356
2017-07-17T05:09:23.410Z,360
2017-07-17T05:10:24.836Z,364
2017-07-17T05:11:26.261Z,344
2017-07-17T05:12:27.687Z,344
2017-07-17T05:13:29.106Z,332
2017-07-17T05:14:30.545Z,364
2017-07-17T05:15:31.965Z,364
2017-07-17T05:16:33.395Z,364
2017-07-17T05:17:34.825Z,348
2017-07-17T05:18:36.290Z,280
2017-07-17T05:19:37.718Z,264
2017-07-17T05:20:39.144Z,232
2017-07-17T05:21:40.562Z,240
2017-07-17T05:22:41.995Z,264
2017-07-17T05:23:43.426Z,304
2017-07-17T05:24:44.847Z,320
2017-07-17T05:25:46.270Z,292
2017-07-17T05:26:47.692Z,268
2017-07-17T05:27:49.123Z,252
2017-07-17T05:28:50.543Z,244
2017-07-17T05:29:51.971Z,256
2017-07-17T05:30:53.395Z,252
2017-07-17T05:31:54.821Z,236
2017-07-17T05:32:56.250Z,228
2017-07-17T05:33:57.677Z,224
2017-07-17T05:34:59.101Z,188
2017-07-17T05:36:00.528Z,168
2017-07-17T05:37:01.955Z,156
2017-07-17T05:38:03.382Z,156
2017-07-17T05:39:04.806Z,148
2017-07-17T05:40:06.226Z,144
2017-07-17T05:41:07.654Z,148
2017-07-17T05:42:09.086Z,152
2017-07-17T05:43:10.510Z,160
2017-07-17T05:44:11.935Z,160
2017-07-17T05:45:13.371Z,152
2017-07-17T05:46:14.793Z,144
2017-07-17T05:47:16.796Z,164
2017-07-17T05:48:18.223Z,192
2017-07-17T05:49:19.650Z,224
2017-07-17T05:50:21.072Z,236
2017-07-17T05:51:22.504Z,252
2017-07-17T05:52:23.948Z,276
2017-07-17T05:53:25.367Z,304
2017-07-17T05:54:26.784Z,360
2017-07-17T05:55:28.217Z,396
2017-07-17T05:56:29.651Z,340
2017-07-17T05:57:31.076Z,280
2017-07-17T05:58:32.503Z,248
2017-07-17T05:59:33.925Z,212
2017-07-17T06:00:35.358Z,192
2017-07-17T06:01:36.783Z,192
2017-07-17T06:02:38.206Z,200
2017-07-17T06:03:39.643Z,240
2017-07-17T06:04:41.070Z,228
2017-07-17T06:05:42.501Z,196
2017-07-17T06:06:44.736Z,196
2017-07-17T06:07:46.166Z,188
2017-07-17T06:08:47.591Z,188
2017-07-17T06:09:49.018Z,200
2017-07-17T06:10:50.445Z,220
2017-07-17T06:11:51.869Z,236
2017-07-17T06:12:53.296Z,252
2017-07-17T06:13:54.719Z,268
2017-07-17T06:14:56.144Z,280
2017-07-17T06:15:57.586Z,284
2017-07-17T06:16:59.014Z,284
2017-07-17T06:18:00.432Z,300
2017-07-17T06:19:01.865Z,316
2017-07-17T06:20:03.287Z,328
2017-07-17T06:21:04.706Z,352
2017-07-17T06:22:06.125Z,376
2017-07-17T06:23:07.546Z,396
2017-07-17T06:24:08.977Z,420
2017-07-17T06:25:10.393Z,448
2017-07-17T06:26:11.811Z,484
2017-07-17T06:27:13.233Z,440
2017-07-17T06:28:14.662Z,428
2017-07-17T06:29:16.086Z,460
2017-07-17T06:30:17.524Z,512
2017-07-17T06:31:18.941Z,532
2017-07-17T06:32:20.363Z,524
2017-07-17T06:33:21.782Z,588
2017-07-17T06:34:23.209Z,644
2017-07-17T06:35:24.631Z,736
2017-07-17T06:36:26.057Z,824
2017-07-17T06:37:27.495Z,892
2017-07-17T06:38:28.913Z,944
2017-07-17T06:39:30.338Z,1008
2017-07-17T06:40:31.768Z,1040
2017-07-17T06:41:33.196Z,1088
2017-07-17T06:42:34.620Z,1140
2017-07-17T06:43:36.123Z,1236
2017-07-17T06:44:37.570Z,1404
2017-07-17T06:45:38.993Z,1512
2017-07-17T06:46:40.426Z,1544
2017-07-17T06:47:41.859Z,1528
2017-07-17T06:48:43.282Z,1484
2017-07-17T06:49:44.707Z,1420
2017-07-17T06:50:46.147Z,1364
2017-07-17T06:51:47.587Z,1324
2017-07-17T06:52:49.019Z,1344
2017-07-17T06:53:50.440Z,1372
2017-07-17T06:54:51.865Z,1380
2017-07-17T06:55:53.298Z,1332
2017-07-17T06:56:54.730Z,1296
2017-07-17T06:57:56.151Z,1196
2017-07-17T06:58:57.578Z,1068
2017-07-17T06:59:59.006Z,888
2017-07-17T07:01:00.427Z,904
2017-07-17T07:02:01.852Z,804
2017-07-17T07:03:03.271Z,876
2017-07-17T07:04:04.701Z,952
2017-07-17T07:05:06.126Z,1060
2017-07-17T07:06:07.575Z,1100
2017-07-17T07:07:11.712Z,1224
2017-07-17T07:08:13.253Z,1256
2017-07-17T07:09:14.681Z,1092
2017-07-17T07:10:16.106Z,1084
2017-07-17T07:11:17.537Z,1020
2017-07-17T07:12:18.965Z,956
2017-07-17T07:13:21.155Z,940
2017-07-17T07:14:22.596Z,880
2017-07-17T07:15:24.013Z,812
2017-07-17T07:16:25.434Z,724
2017-07-17T07:17:26.870Z,716
2017-07-17T07:18:28.300Z,712
2017-07-17T07:19:29.725Z,748
2017-07-17T07:20:31.153Z,676
2017-07-17T07:21:32.585Z,712
2017-07-17T07:22:34.016Z,664
2017-07-17T07:23:35.431Z,624
2017-07-17T07:24:36.864Z,644
2017-07-17T07:25:38.295Z,708
2017-07-17T07:26:39.756Z,724
2017-07-17T07:27:41.182Z,704
2017-07-17T07:28:42.599Z,764
2017-07-17T07:29:44.036Z,712
2017-07-17T07:30:45.476Z,688
2017-07-17T07:31:46.915Z,712
2017-07-17T07:32:48.341Z,640
2017-07-17T07:33:49.771Z,624
2017-07-17T07:34:51.193Z,644
2017-07-17T07:35:52.613Z,704
2017-07-17T07:36:54.049Z,824
2017-07-17T07:37:55.477Z,972
2017-07-17T07:38:56.903Z,1076
2017-07-17T07:39:58.335Z,1076
2017-07-17T07:40:59.758Z,1052
2017-07-17T07:42:01.194Z,904
2017-07-17T07:43:02.621Z,476
2017-07-17T07:44:04.050Z,784
2017-07-17T07:45:05.477Z,656
2017-07-17T07:46:06.899Z,616
2017-07-17T07:47:08.322Z,616
2017-07-17T07:48:09.748Z,316
2017-07-17T07:49:11.174Z,524
2017-07-17T07:50:12.610Z,600
2017-07-17T07:51:14.030Z,676
2017-07-17T07:52:15.466Z,796
2017-07-17T07:53:16.895Z,872
2017-07-17T07:54:18.331Z,1052
2017-07-17T07:55:19.758Z,1132
2017-07-17T07:56:21.198Z,1308
2017-07-17T07:57:22.623Z,1476
2017-07-17T07:58:24.058Z,1588
2017-07-17T07:59:25.491Z,1548
2017-07-17T08:00:26.937Z,1292
2017-07-17T08:01:28.346Z,1692
2017-07-17T08:02:29.776Z,1744
2017-07-17T08:03:31.204Z,1808
2017-07-17T08:04:32.625Z,1788
2017-07-17T08:05:34.065Z,1784
2017-07-17T08:06:35.499Z,1688
2017-07-17T08:07:36.955Z,1708
2017-07-17T08:08:38.382Z,1840
2017-07-17T08:09:39.812Z,2000
2017-07-17T08:10:41.234Z,2116
2017-07-17T08:11:42.670Z,2308
2017-07-17T08:12:44.099Z,2424
2017-07-17T08:13:45.530Z,2460
2017-07-17T08:14:46.952Z,2328
2017-07-17T08:15:48.381Z,2220
2017-07-17T08:16:49.838Z,2204
2017-07-17T08:17:51.267Z,2032
2017-07-17T08:18:52.699Z,2208
2017-07-17T08:19:54.131Z,2172
2017-07-17T08:20:55.555Z,2132
2017-07-17T08:21:56.990Z,2108
2017-07-17T08:22:58.411Z,2144
2017-07-17T08:23:59.842Z,2152
2017-07-17T08:25:01.277Z,2220
2017-07-17T08:26:02.704Z,2224
2017-07-17T08:27:04.129Z,2192
2017-07-17T08:28:05.559Z,2240
2017-07-17T08:29:06.989Z,2336
2017-07-17T08:30:08.417Z,2468
2017-07-17T08:31:09.847Z,2620
2017-07-17T08:32:11.269Z,2992
2017-07-17T08:33:12.693Z,3348
2017-07-17T08:34:14.136Z,3056
2017-07-17T08:35:15.566Z,2976
2017-07-17T08:36:16.995Z,2916
2017-07-17T08:37:18.425Z,2912
2017-07-17T08:38:19.854Z,2732
2017-07-17T08:39:21.287Z,2768
2017-07-17T08:40:22.722Z,3024
2017-07-17T08:41:24.154Z,3344
2017-07-17T08:42:25.603Z,3272
2017-07-17T08:43:27.027Z,2920
2017-07-17T08:44:28.469Z,2280
2017-07-17T08:45:29.899Z,1796
2017-07-17T08:46:31.334Z,1452
2017-07-17T08:47:32.762Z,1336
2017-07-17T08:48:34.191Z,1424
2017-07-17T08:49:35.618Z,1656
2017-07-17T08:50:37.049Z,1840
2017-07-17T08:51:38.475Z,2064
2017-07-17T08:52:39.898Z,2220
2017-07-17T08:53:42.255Z,2412
2017-07-17T08:54:42.693Z,2540
2017-07-17T08:55:44.140Z,2532
2017-07-17T08:56:46.228Z,2432
2017-07-17T08:57:47.651Z,2368
2017-07-17T08:58:49.080Z,2284
2017-07-17T08:59:50.535Z,2192
2017-07-17T09:00:51.966Z,2136
2017-07-17T09:01:53.393Z,2160
2017-07-17T09:02:54.820Z,2136
2017-07-17T09:03:56.249Z,2032
2017-07-17T09:04:57.684Z,1908
2017-07-17T09:05:59.118Z,1844
2017-07-17T09:07:01.403Z,1964
2017-07-17T09:08:02.838Z,2100
2017-07-17T09:09:04.270Z,2156
2017-07-17T09:10:05.705Z,2192
2017-07-17T09:11:07.153Z,2260
2017-07-17T09:12:08.585Z,2272
2017-07-17T09:13:10.021Z,2276
2017-07-17T09:14:12.347Z,2340
2017-07-17T09:15:13.784Z,2472
2017-07-17T09:16:15.217Z,2632
2017-07-17T09:17:16.653Z,2760
2017-07-17T09:18:18.087Z,2768
2017-07-17T09:19:20.316Z,2840
2017-07-17T09:20:21.750Z,2804
2017-07-17T09:21:23.167Z,2932
2017-07-17T09:22:24.595Z,2888
2017-07-17T09:23:26.030Z,2788
2017-07-17T09:24:27.468Z,2636
2017-07-17T09:25:28.895Z,2556
2017-07-17T09:26:30.329Z,2528
2017-07-17T09:27:31.759Z,2376
2017-07-17T09:28:33.184Z,2132
2017-07-17T09:29:34.607Z,1924
2017-07-17T09:30:36.046Z,1844
2017-07-17T09:31:37.474Z,1832
2017-07-17T09:32:38.905Z,1784
2017-07-17T09:33:40.351Z,1720
2017-07-17T09:34:41.800Z,1596
2017-07-17T09:35:43.234Z,1608
2017-07-17T09:36:44.658Z,1728
2017-07-17T09:37:46.087Z,1812
2017-07-17T09:38:47.529Z,1836
2017-07-17T09:39:48.965Z,1932
2017-07-17T09:40:50.391Z,2044
2017-07-17T09:41:51.819Z,2172
2017-07-17T09:42:53.259Z,2256
2017-07-17T09:43:54.681Z,2316
2017-07-17T09:44:56.198Z,2184
2017-07-17T09:45:57.626Z,2172
2017-07-17T09:46:59.477Z,2244
2017-07-17T09:48:00.914Z,2300
2017-07-17T09:49:02.414Z,2324
2017-07-17T09:50:03.915Z,2372
2017-07-17T09:51:05.348Z,2440
2017-07-17T09:52:06.769Z,2548
2017-07-17T09:53:08.210Z,2500
2017-07-17T09:54:09.646Z,1896
2017-07-17T09:55:11.077Z,2140
2017-07-17T09:56:12.507Z,1960
2017-07-17T09:57:13.971Z,1820
2017-07-17T09:58:15.404Z,1740
2017-07-17T09:59:16.844Z,1704
2017-07-17T10:00:18.272Z,1712
2017-07-17T10:01:19.704Z,1712
2017-07-17T10:02:21.135Z,1808
2017-07-17T10:03:22.575Z,2252
2017-07-17T10:04:24.008Z,2380
2017-07-17T10:05:25.433Z,2260
2017-07-17T10:06:26.862Z,2360
2017-07-17T10:07:28.286Z,2644
2017-07-17T10:08:29.726Z,2516
2017-07-17T10:09:31.155Z,2572
2017-07-17T10:10:32.588Z,2740
2017-07-17T10:11:34.019Z,2848
2017-07-17T10:12:35.439Z,2812
2017-07-17T10:13:36.892Z,2648
2017-07-17T10:14:38.322Z,2488
2017-07-17T10:15:39.755Z,1976
2017-07-17T10:16:41.194Z,1804
2017-07-17T10:17:42.628Z,2140
2017-07-17T10:18:44.053Z,2700
2017-07-17T10:19:45.490Z,3192
2017-07-17T10:20:46.913Z,3532
2017-07-17T10:21:48.347Z,3476
2017-07-17T10:22:49.771Z,3404
2017-07-17T10:23:51.208Z,3056
2017-07-17T10:24:52.646Z,2772
2017-07-17T10:25:54.093Z,2492
2017-07-17T10:26:55.518Z,2480
2017-07-17T10:27:56.954Z,2332
2017-07-17T10:28:58.384Z,2308
2017-07-17T10:29:59.827Z,2396
2017-07-17T10:31:01.274Z,2576
2017-07-17T10:32:02.705Z,2356
2017-07-17T10:33:04.133Z,2288
2017-07-17T10:34:05.566Z,2940
2017-07-17T10:35:06.998Z,3260
2017-07-17T10:36:08.432Z,3512
2017-07-17T10:37:09.858Z,3652
2017-07-17T10:38:11.283Z,3628
2017-07-17T10:39:12.710Z,3648
2017-07-17T10:40:14.149Z,3564
2017-07-17T10:41:15.586Z,3436
2017-07-17T10:42:17.007Z,3412
2017-07-17T10:43:18.433Z,3436
2017-07-17T10:44:19.871Z,3676
2017-07-17T10:45:22.062Z,3832
2017-07-17T10:46:23.489Z,3992
2017-07-17T10:47:24.925Z,3356
2017-07-17T10:48:26.369Z,2872
2017-07-17T10:49:27.804Z,2320
2017-07-17T10:50:29.233Z,2476
2017-07-17T10:51:30.803Z,2636
2017-07-17T10:52:32.256Z,3564
2017-07-17T10:53:33.686Z,3900
2017-07-17T10:54:35.112Z,4080
2017-07-17T10:55:36.548Z,4232
2017-07-17T10:56:37.969Z,4592
2017-07-17T10:57:39.404Z,4848
2017-07-17T10:58:40.845Z,5032
2017-07-17T10:59:42.434Z,4560
2017-07-17T11:00:43.850Z,4868
2017-07-17T11:01:45.292Z,4728
2017-07-17T11:02:46.725Z,4908
2017-07-17T11:03:48.155Z,4968
2017-07-17T11:04:49.584Z,4840
2017-07-17T11:05:51.014Z,4680
2017-07-17T11:06:52.444Z,3904
2017-07-17T11:07:54.664Z,3328
2017-07-17T11:08:56.100Z,3740
2017-07-17T11:09:57.558Z,4536
2017-07-17T11:10:58.993Z,4720
2017-07-17T11:12:00.424Z,3996
2017-07-17T11:13:01.875Z,4316
2017-07-17T11:14:03.321Z,4480
2017-07-17T11:15:04.750Z,4352
2017-07-17T11:16:06.197Z,4016
2017-07-17T11:17:07.635Z,4096
2017-07-17T11:18:09.057Z,4372
2017-07-17T11:19:10.494Z,3924
2017-07-17T11:20:11.928Z,4556
2017-07-17T11:21:13.354Z,4520
2017-07-17T11:22:14.785Z,4472
2017-07-17T11:23:16.259Z,4624
2017-07-17T11:24:17.713Z,4780
2017-07-17T11:25:19.148Z,4728
2017-07-17T11:26:20.573Z,4444
2017-07-17T11:27:22.005Z,4752
2017-07-17T11:28:23.440Z,4960
2017-07-17T11:29:24.868Z,5032
2017-07-17T11:30:26.306Z,5064
2017-07-17T11:31:27.747Z,4588
2017-07-17T11:32:29.183Z,4928
2017-07-17T11:33:30.616Z,4836
2017-07-17T11:34:32.070Z,4940
2017-07-17T11:35:33.507Z,4748
2017-07-17T11:36:34.946Z,4608
2017-07-17T11:37:36.379Z,4564
2017-07-17T11:38:37.824Z,4620
2017-07-17T11:39:39.259Z,4828
2017-07-17T11:40:40.696Z,5008
2017-07-17T11:41:42.132Z,5056
2017-07-17T11:42:43.560Z,5060
2017-07-17T11:43:44.999Z,5148
2017-07-17T11:44:46.434Z,5012
2017-07-17T11:45:47.869Z,4344
2017-07-17T11:56:42.290Z,3876
2017-07-17T11:58:23.254Z,3020
2017-07-17T11:59:24.694Z,2836
2017-07-17T12:00:26.137Z,2912
2017-07-17T12:01:27.574Z,3888
2017-07-17T12:02:29.007Z,3972
2017-07-17T12:03:30.435Z,3872
2017-07-17T12:04:31.862Z,4116
2017-07-17T12:06:12.781Z,3980
2017-07-17T12:07:14.211Z,3716
2017-07-17T12:08:15.647Z,3580
2017-07-17T12:09:17.081Z,3612
2017-07-17T12:10:18.516Z,3932
2017-07-17T12:11:19.946Z,4156
2017-07-17T12:12:21.373Z,4308
2017-07-17T12:13:22.804Z,4540
2017-07-17T12:14:24.239Z,4552
2017-07-17T12:15:25.673Z,4284
2017-07-17T12:16:27.101Z,4028
2017-07-17T12:17:28.533Z,3788
2017-07-17T12:18:29.963Z,3832
2017-07-17T12:19:31.392Z,3984
2017-07-17T12:20:32.822Z,4092
2017-07-17T12:21:34.255Z,3972
2017-07-17T12:22:35.690Z,4096
2017-07-17T12:23:37.118Z,4356
2017-07-17T12:24:38.567Z,4392
2017-07-17T12:25:39.992Z,4248
2017-07-17T12:26:41.418Z,3148
2017-07-17T12:27:42.853Z,3040
2017-07-17T12:28:44.285Z,3048
2017-07-17T12:29:45.714Z,3604
2017-07-17T12:30:47.143Z,3716
2017-07-17T12:31:48.591Z,4232
2017-07-17T12:32:50.026Z,4072
2017-07-17T12:33:51.457Z,1520
2017-07-17T12:34:52.896Z,4152
2017-07-17T12:35:54.327Z,4348
2017-07-17T12:36:55.765Z,4504
2017-07-17T12:37:57.208Z,4692
2017-07-17T12:38:58.640Z,4208
2017-07-17T12:40:00.077Z,3804
2017-07-17T12:41:01.504Z,3808
2017-07-17T12:42:02.941Z,3728
2017-07-17T12:43:04.371Z,3712
2017-07-17T12:44:05.800Z,3612
2017-07-17T12:45:07.238Z,3744
2017-07-17T12:46:08.680Z,4300
2017-07-17T12:47:10.105Z,4192
2017-07-17T12:48:11.538Z,4024
2017-07-17T12:49:12.971Z,4236
2017-07-17T12:50:14.412Z,4388
2017-07-17T12:51:15.849Z,4420
2017-07-17T12:52:17.274Z,4348
2017-07-17T12:53:18.713Z,4340
2017-07-17T12:54:20.137Z,4600
2017-07-17T12:55:22.325Z,4436
2017-07-17T12:56:25.187Z,4204
2017-07-17T12:57:26.619Z,4036
2017-07-17T12:58:28.048Z,4684
2017-07-17T12:59:29.485Z,4700
2017-07-17T13:00:30.918Z,4624
2017-07-17T13:01:32.353Z,4504
2017-07-17T13:02:33.784Z,4156
2017-07-17T13:03:35.222Z,4032
2017-07-17T13:04:36.654Z,3800
2017-07-17T13:05:38.080Z,3564
2017-07-17T13:06:39.526Z,3572
2017-07-17T13:07:40.954Z,3604
2017-07-17T13:08:42.384Z,3520
2017-07-17T13:09:43.813Z,3424
2017-07-17T13:10:45.242Z,3308
2017-07-17T13:11:46.689Z,3192
2017-07-17T13:12:48.146Z,2772
2017-07-17T13:13:49.576Z,3156
2017-07-17T13:14:51.016Z,3164
2017-07-17T13:15:52.450Z,3108
2017-07-17T13:16:53.884Z,3064
2017-07-17T13:17:55.317Z,3076
2017-07-17T13:18:56.748Z,3152
2017-07-17T13:19:58.188Z,3176
2017-07-17T13:21:00.328Z,3220
2017-07-17T13:22:01.767Z,3156
2017-07-17T13:23:03.201Z,3140
2017-07-17T13:24:04.626Z,3272
2017-07-17T13:25:06.056Z,3528
2017-07-17T13:26:07.486Z,3504
2017-07-17T13:27:08.913Z,3560
2017-07-17T13:28:10.349Z,3480
2017-07-17T13:29:11.785Z,3240
2017-07-17T13:30:13.217Z,3144
2017-07-17T13:31:14.652Z,3060
2017-07-17T13:32:16.088Z,3040
2017-07-17T13:33:17.516Z,3052
2017-07-17T13:34:18.961Z,3116
2017-07-17T13:35:20.404Z,3272
2017-07-17T13:36:21.840Z,3392
2017-07-17T13:37:23.273Z,3140
2017-07-17T13:38:24.704Z,3244
2017-07-17T13:39:26.136Z,3484
2017-07-17T13:40:27.572Z,3360
2017-07-17T13:41:29.063Z,2736
2017-07-17T13:42:30.491Z,2768
2017-07-17T13:43:31.933Z,2780
2017-07-17T13:44:33.366Z,2772
2017-07-17T13:45:34.792Z,2804
2017-07-17T13:46:36.224Z,3108
2017-07-17T13:47:37.655Z,3476
2017-07-17T13:48:39.108Z,4240
2017-07-17T13:49:40.546Z,4560
2017-07-17T13:50:41.988Z,4020
2017-07-17T13:51:43.420Z,4180
2017-07-17T13:52:44.858Z,3464
2017-07-17T13:53:47.098Z,4012
2017-07-17T13:54:48.539Z,3636
2017-07-17T13:55:49.990Z,6432
2017-07-17T13:56:51.420Z,12544
2017-07-17T13:57:52.855Z,3620
2017-07-17T13:58:54.299Z,3116
2017-07-17T13:59:55.735Z,2680
2017-07-17T14:00:57.166Z,13968
2017-07-17T14:01:58.620Z,25440
2017-07-17T14:03:00.065Z,19200
2017-07-17T14:04:01.514Z,24480
2017-07-17T14:05:02.961Z,9716
2017-07-17T14:06:04.393Z,6372
2017-07-17T14:07:05.840Z,2880
2017-07-17T14:08:07.293Z,3116
2017-07-17T14:09:08.741Z,3004
2017-07-17T14:10:10.980Z,2868
2017-07-17T14:11:12.414Z,2772
2017-07-17T14:12:13.852Z,2840
2017-07-17T14:13:15.287Z,3000
2017-07-17T14:14:16.729Z,3076
2017-07-17T14:15:18.168Z,3044
2017-07-17T14:16:19.605Z,2956
2017-07-17T14:17:21.036Z,2920
2017-07-17T14:18:22.493Z,2960
2017-07-17T14:19:23.917Z,2852